createdAt,value
2022-11-06T00:00:31.918Z,24.80
2022-11-06T00:03:34.948Z,33.27
2022-11-06T00:06:50.283Z,41.37
2022-11-06T00:09:53.314Z,32.77
2022-11-06T00:12:56.129Z,24.03
2022-11-06T00:16:03.582Z,20.90
2022-11-06T00:19:06.575Z,20.20
2022-11-06T00:22:10.567Z,26.70
2022-11-06T00:25:13.712Z,43.80
2022-11-06T00:28:16.367Z,21.93
2022-11-06T00:31:21.080Z,34.93
2022-11-06T00:34:23.807Z,21.93
2022-11-06T00:37:27.960Z,34.13
2022-11-06T00:40:30.884Z,27.17
2022-11-06T00:43:35.698Z,63.67
2022-11-06T00:46:39.013Z,51.67
2022-11-06T00:49:41.769Z,31.80
2022-11-06T00:52:46.573Z,167.53
2022-11-06T00:55:49.262Z,47.60
2022-11-06T00:58:52.753Z,87.37
2022-11-06T01:01:55.851Z,116.80
2022-11-06T01:04:58.876Z,53.67
2022-11-06T01:08:03.106Z,55.57
2022-11-06T01:11:12.283Z,66.43
2022-11-06T01:14:16.964Z,84.77
2022-11-06T01:17:20.143Z,104.43
2022-11-06T01:20:23.108Z,87.13
2022-11-06T01:23:27.151Z,157.40
2022-11-06T01:26:38.281Z,75.60
2022-11-06T01:29:43.673Z,89.40
2022-11-06T01:32:46.341Z,68.30
2022-11-06T01:35:50.853Z,53.97
2022-11-06T01:38:56.709Z,56.07
2022-11-06T01:42:00.228Z,43.30
2022-11-06T01:45:24.557Z,17.10
2022-11-06T01:48:29.259Z,53.13
2022-11-06T01:51:34.907Z,34.97
2022-11-06T01:54:41.866Z,86.57
2022-11-06T01:57:45.312Z,66.33
2022-11-06T02:00:49.530Z,82.57
2022-11-06T02:04:00.345Z,53.40
2022-11-06T02:07:04.485Z,31.27
2022-11-06T02:10:09.711Z,59.77
2022-11-06T02:13:21.359Z,44.27
2022-11-06T02:16:31.892Z,60.20
2022-11-06T02:19:55.538Z,120.60
2022-11-06T02:23:11.090Z,61.77
2022-11-06T02:26:34.048Z,47.70
2022-11-06T02:29:45.828Z,50.37
2022-11-06T02:32:55.734Z,33.07
2022-11-06T02:36:03.391Z,41.53
2022-11-06T02:39:13.326Z,50.33
2022-11-06T02:42:19.832Z,100.90
2022-11-06T02:45:26.682Z,62.50
2022-11-06T02:48:33.978Z,40.03
2022-11-06T02:51:41.454Z,80.30
2022-11-06T02:54:48.721Z,59.13
2022-11-06T02:57:57.049Z,74.60
2022-11-06T03:01:06.011Z,67.70
2022-11-06T03:04:16.974Z,63.07
2022-11-06T03:07:29.292Z,44.43
2022-11-06T03:10:40.151Z,43.20
2022-11-06T03:13:53.899Z,62.17
2022-11-06T03:17:01.519Z,71.97
2022-11-06T03:20:16.458Z,27.03
2022-11-06T03:23:26.375Z,63.10
2022-11-06T03:26:34.822Z,43.57
2022-11-06T03:29:41.723Z,48.50
2022-11-06T03:32:50.368Z,39.63
2022-11-06T03:35:59.320Z,29.90
2022-11-06T03:39:06.709Z,81.90
2022-11-06T03:42:14.498Z,62.20
2022-11-06T03:45:23.047Z,73.23
2022-11-06T03:48:34.800Z,55.10
2022-11-06T03:51:43.299Z,30.97
2022-11-06T03:54:51.410Z,42.83
2022-11-06T03:57:58.179Z,36.23
2022-11-06T04:01:06.258Z,46.60
2022-11-06T04:04:15.620Z,32.27
2022-11-06T04:07:23.922Z,49.67
2022-11-06T04:10:44.084Z,36.17
2022-11-06T04:14:02.551Z,29.03
2022-11-06T04:17:11.467Z,25.73
2022-11-06T04:20:33.512Z,47.57
2022-11-06T04:23:45.663Z,31.93
2022-11-06T04:27:01.398Z,55.40
2022-11-06T04:30:09.639Z,52.43
2022-11-06T04:33:19.215Z,16.30
2022-11-06T04:36:33.421Z,27.23
2022-11-06T04:39:45.853Z,28.63
2022-11-06T04:42:56.047Z,30.90
2022-11-06T04:46:01.960Z,16.40
2022-11-06T04:49:07.383Z,37.47
2022-11-06T04:52:16.727Z,54.63
2022-11-06T04:55:21.861Z,51.57
2022-11-06T04:58:25.583Z,23.80
2022-11-06T05:01:29.055Z,14.80
2022-11-06T05:04:32.694Z,12.57
2022-11-06T05:07:37.241Z,15.27
2022-11-06T05:10:40.375Z,19.03
2022-11-06T05:13:43.112Z,10.33
2022-11-06T05:16:46.324Z,34.47
2022-11-06T05:19:49.626Z,28.27
2022-11-06T05:23:00.460Z,22.90
2022-11-06T05:26:04.470Z,18.67
2022-11-06T05:29:08.174Z,24.53
2022-11-06T05:32:11.038Z,45.33
2022-11-06T05:35:13.772Z,27.73
2022-11-06T05:38:18.226Z,18.80
2022-11-06T05:41:20.921Z,21.57
2022-11-06T05:44:24.122Z,20.90
2022-11-06T05:47:26.900Z,29.63
2022-11-06T05:50:29.712Z,26.83
2022-11-06T05:53:35.879Z,27.07
2022-11-06T05:56:38.963Z,18.13
2022-11-06T05:59:42.054Z,24.63
2022-11-06T06:02:45.492Z,26.00
2022-11-06T06:05:48.382Z,18.80
2022-11-06T06:08:52.525Z,20.47
2022-11-06T06:11:55.856Z,16.43
2022-11-06T06:14:58.990Z,14.80
2022-11-06T06:18:02.369Z,13.37
2022-11-06T06:21:05.926Z,15.00
2022-11-06T06:24:12.335Z,15.87
2022-11-06T06:27:15.481Z,13.20
2022-11-06T06:30:18.558Z,28.40
2022-11-06T06:33:22.064Z,21.07
2022-11-06T06:36:24.859Z,14.07
2022-11-06T06:39:29.566Z,15.47
2022-11-06T06:42:32.856Z,20.93
2022-11-06T06:45:35.999Z,11.83
2022-11-06T06:48:39.504Z,13.83
2022-11-06T06:51:42.693Z,23.30
2022-11-06T06:54:46.782Z,16.87
2022-11-06T06:57:49.868Z,10.97
2022-11-06T07:00:52.658Z,16.27
2022-11-06T07:04:03.738Z,16.50
2022-11-06T07:07:08.442Z,22.63
2022-11-06T07:10:12.959Z,5.17
2022-11-06T07:13:16.337Z,12.37
2022-11-06T07:16:21.617Z,18.03
2022-11-06T07:19:24.361Z,15.90
2022-11-06T07:22:35.337Z,17.23
2022-11-06T07:25:41.042Z,16.53
2022-11-06T07:28:43.836Z,15.33
2022-11-06T07:31:46.662Z,10.37
2022-11-06T07:34:51.286Z,22.70
2022-11-06T07:37:54.713Z,9.13
2022-11-06T07:41:03.330Z,4.63
2022-11-06T07:44:06.227Z,9.97
2022-11-06T07:47:08.944Z,5.17
2022-11-06T07:50:13.001Z,15.37
2022-11-06T07:53:20.525Z,14.07
2022-11-06T07:56:24.585Z,12.43
2022-11-06T07:59:27.359Z,11.10
2022-11-06T08:02:30.524Z,13.07
2022-11-06T08:05:34.879Z,18.37
2022-11-06T08:08:38.280Z,17.20
2022-11-06T08:11:42.598Z,15.40
2022-11-06T08:14:48.137Z,13.93
2022-11-06T08:17:52.766Z,15.70
2022-11-06T08:20:56.387Z,18.63
2022-11-06T08:23:59.538Z,17.77
2022-11-06T08:27:03.784Z,20.47
2022-11-06T08:30:08.391Z,18.10
2022-11-06T08:33:12.357Z,18.30
2022-11-06T08:36:16.005Z,18.20
2022-11-06T08:39:21.133Z,15.23
2022-11-06T08:42:25.911Z,16.23
2022-11-06T08:45:30.082Z,15.87
2022-11-06T08:48:33.165Z,19.50
2022-11-06T08:51:36.107Z,16.87
2022-11-06T08:54:39.263Z,19.30
2022-11-06T08:57:43.363Z,16.43
2022-11-06T09:00:51.006Z,11.13
2022-11-06T09:03:54.534Z,18.17
2022-11-06T09:06:57.595Z,15.83
2022-11-06T09:10:00.878Z,9.37
2022-11-06T09:13:05.094Z,18.00
2022-11-06T09:16:14.319Z,19.50
2022-11-06T09:19:18.525Z,16.07
2022-11-06T09:22:21.272Z,19.13
2022-11-06T09:25:24.021Z,11.73
2022-11-06T09:28:28.322Z,18.33
2022-11-06T09:31:31.308Z,8.73
2022-11-06T09:34:34.095Z,13.17
2022-11-06T09:37:37.363Z,9.13
2022-11-06T09:40:43.331Z,11.60
2022-11-06T09:44:05.569Z,8.40
2022-11-06T09:47:18.255Z,15.40
2022-11-06T09:50:25.421Z,12.07
2022-11-06T09:53:32.331Z,11.10
2022-11-06T09:56:39.316Z,7.90
2022-11-06T09:59:43.805Z,9.67
2022-11-06T10:02:49.571Z,6.83
2022-11-06T10:05:54.671Z,13.63
2022-11-06T10:09:01.136Z,5.10
2022-11-06T10:12:14.169Z,6.53
2022-11-06T10:15:26.207Z,6.80
2022-11-06T10:18:40.683Z,4.33
2022-11-06T10:21:49.545Z,8.00
2022-11-06T10:25:02.054Z,8.50
2022-11-06T10:28:19.642Z,10.20
2022-11-06T10:31:32.633Z,7.07
2022-11-06T10:34:41.127Z,5.10
2022-11-06T10:37:49.869Z,9.50
2022-11-06T10:40:54.224Z,3.17
2022-11-06T10:44:02.622Z,12.87
2022-11-06T10:47:16.690Z,7.20
2022-11-06T10:50:19.942Z,11.17
2022-11-06T10:53:34.421Z,8.73
2022-11-06T10:56:49.600Z,9.80
2022-11-06T10:59:52.634Z,8.87
2022-11-06T11:02:59.282Z,4.47
2022-11-06T11:06:04.145Z,12.00
2022-11-06T11:09:28.260Z,9.57
2022-11-06T11:12:32.903Z,9.63
2022-11-06T11:15:44.562Z,11.50
2022-11-06T11:18:50.587Z,8.43
2022-11-06T11:21:54.734Z,4.00
2022-11-06T11:25:03.319Z,1.80
2022-11-06T11:28:06.381Z,10.57
2022-11-06T11:31:11.967Z,8.77
2022-11-06T11:34:20.043Z,6.17
2022-11-06T11:37:27.062Z,6.77
2022-11-06T11:40:37.490Z,4.63
2022-11-06T11:43:41.033Z,7.53
2022-11-06T11:46:48.374Z,5.67
2022-11-06T11:49:52.734Z,6.63
2022-11-06T11:53:03.190Z,6.27
2022-11-06T11:56:15.115Z,5.83
2022-11-06T11:59:21.004Z,5.83
2022-11-06T12:02:29.466Z,7.23
2022-11-06T12:05:36.391Z,9.53
2022-11-06T12:08:41.339Z,5.17
2022-11-06T12:11:44.548Z,7.73
2022-11-06T12:14:48.259Z,8.73
2022-11-06T12:17:55.475Z,7.30
2022-11-06T12:21:05.383Z,7.17
2022-11-06T12:24:14.721Z,5.87
2022-11-06T12:27:22.999Z,3.70
2022-11-06T12:30:26.504Z,7.63
2022-11-06T12:33:59.941Z,7.57
2022-11-06T12:37:12.369Z,7.60
2022-11-06T12:40:25.064Z,7.40
2022-11-06T12:43:37.420Z,7.07
2022-11-06T12:46:49.839Z,5.53
2022-11-06T12:50:14.760Z,7.90
2022-11-06T12:53:29.969Z,10.83
2022-11-06T12:56:41.254Z,6.87
2022-11-06T12:59:55.549Z,9.37
2022-11-06T13:03:20.240Z,7.37
2022-11-06T13:06:30.328Z,5.50
2022-11-06T13:09:41.974Z,4.43
2022-11-06T13:12:54.008Z,5.70
2022-11-06T13:16:04.891Z,4.87
2022-11-06T13:19:16.150Z,5.63
2022-11-06T13:22:27.273Z,4.77
2022-11-06T13:25:39.801Z,5.50
2022-11-06T13:28:46.274Z,5.63
2022-11-06T13:31:54.227Z,6.00
2022-11-06T13:34:58.087Z,5.77
2022-11-06T13:38:03.679Z,6.10
2022-11-06T13:41:14.401Z,8.60
2022-11-06T13:44:18.840Z,7.37
2022-11-06T13:47:27.758Z,6.93
2022-11-06T13:50:37.438Z,5.80
2022-11-06T13:53:46.761Z,6.17
2022-11-06T13:57:15.957Z,6.97
2022-11-06T14:00:23.761Z,7.33
2022-11-06T14:03:48.088Z,6.00
2022-11-06T14:06:55.676Z,6.00
2022-11-06T14:09:59.992Z,6.13
2022-11-06T14:13:08.813Z,6.43
2022-11-06T14:16:31.696Z,9.30
2022-11-06T14:19:34.459Z,11.93
2022-11-06T14:22:38.757Z,6.63
2022-11-06T14:26:00.130Z,6.37
2022-11-06T14:29:37.281Z,8.53
2022-11-06T14:32:44.827Z,11.07
2022-11-06T14:35:52.796Z,7.23
2022-11-06T14:38:56.181Z,10.53
2022-11-06T14:42:00.711Z,7.30
2022-11-06T14:45:12.233Z,9.83
2022-11-06T14:48:27.574Z,7.67
2022-11-06T14:51:30.737Z,7.90
2022-11-06T14:54:36.242Z,7.43
2022-11-06T14:57:47.572Z,11.50
2022-11-06T15:00:53.385Z,8.03
2022-11-06T15:04:00.122Z,11.20
2022-11-06T15:07:11.548Z,12.67
2022-11-06T15:10:47.553Z,30.40
2022-11-06T15:13:50.362Z,10.13
2022-11-06T15:16:56.696Z,7.27
2022-11-06T15:20:30.673Z,8.93
2022-11-06T15:23:40.210Z,8.97
2022-11-06T15:26:49.610Z,10.77
2022-11-06T15:29:56.310Z,10.73
2022-11-06T15:33:04.185Z,10.30
2022-11-06T15:36:14.673Z,9.33
2022-11-06T15:39:25.051Z,13.10
2022-11-06T15:42:31.626Z,10.83
2022-11-06T15:45:34.851Z,14.93
2022-11-06T15:48:38.089Z,11.23
2022-11-06T15:51:42.656Z,13.50
2022-11-06T15:54:48.660Z,13.77
2022-11-06T15:57:52.495Z,11.97
2022-11-06T16:00:55.291Z,20.63
2022-11-06T16:03:58.734Z,39.37
2022-11-06T16:07:05.745Z,24.87
2022-11-06T16:10:14.174Z,18.77
2022-11-06T16:13:20.231Z,11.87
2022-11-06T16:16:38.715Z,22.90
2022-11-06T16:19:45.027Z,11.33
2022-11-06T16:22:49.266Z,12.30
2022-11-06T16:25:59.139Z,11.80
2022-11-06T16:29:03.145Z,13.77
2022-11-06T16:32:09.360Z,12.67
2022-11-06T16:35:31.263Z,9.57
2022-11-06T16:38:53.475Z,11.50
2022-11-06T16:42:02.158Z,10.20
2022-11-06T16:45:18.103Z,11.97
2022-11-06T16:48:34.554Z,11.53
2022-11-06T16:51:37.581Z,12.93
2022-11-06T16:54:47.426Z,15.33
2022-11-06T16:57:53.686Z,12.37
2022-11-06T17:00:59.848Z,13.93
2022-11-06T17:04:04.445Z,11.00
2022-11-06T17:07:07.268Z,12.93
2022-11-06T17:10:36.421Z,14.30
2022-11-06T17:13:41.677Z,39.47
2022-11-06T17:16:51.026Z,10.70
2022-11-06T17:19:54.104Z,11.93
2022-11-06T17:22:57.242Z,10.87
2022-11-06T17:26:04.451Z,14.40
2022-11-06T17:29:07.328Z,12.87
2022-11-06T17:32:10.022Z,11.93
2022-11-06T17:35:12.825Z,10.80
2022-11-06T17:38:16.647Z,10.90
2022-11-06T17:41:30.977Z,9.27
2022-11-06T17:44:33.727Z,13.63
2022-11-06T17:47:36.879Z,12.03
2022-11-06T17:50:53.596Z,14.50
2022-11-06T17:53:56.771Z,10.33
2022-11-06T17:57:03.272Z,11.57
2022-11-06T18:00:07.801Z,12.23
2022-11-06T18:03:17.781Z,11.87
2022-11-06T18:06:21.125Z,11.47
2022-11-06T18:09:24.902Z,11.87
2022-11-06T18:12:29.477Z,13.80
2022-11-06T18:15:34.375Z,11.87
2022-11-06T18:18:37.571Z,18.00
2022-11-06T18:21:40.862Z,11.33
2022-11-06T18:24:43.555Z,10.17
2022-11-06T18:27:48.250Z,9.73
2022-11-06T18:30:51.129Z,13.70
2022-11-06T18:33:53.951Z,9.07
2022-11-06T18:36:56.696Z,8.83
2022-11-06T18:39:59.459Z,9.43
2022-11-06T18:43:03.562Z,13.00
2022-11-06T18:46:07.738Z,13.03
2022-11-06T18:49:12.049Z,11.07
2022-11-06T18:52:27.743Z,12.80
2022-11-06T18:55:44.551Z,11.10
2022-11-06T18:58:49.276Z,11.27
2022-11-06T19:01:52.196Z,19.93
2022-11-06T19:04:55.113Z,26.53
2022-11-06T19:08:00.477Z,25.87
2022-11-06T19:11:04.941Z,14.53
2022-11-06T19:14:09.170Z,30.37
2022-11-06T19:17:12.223Z,19.30
2022-11-06T19:20:15.545Z,14.73
2022-11-06T19:23:18.652Z,16.17
2022-11-06T19:26:31.199Z,14.30
2022-11-06T19:29:36.426Z,19.73
2022-11-06T19:32:39.288Z,12.23
2022-11-06T19:35:42.109Z,9.07
2022-11-06T19:38:44.893Z,12.93
2022-11-06T19:41:47.712Z,16.30
2022-11-06T19:44:52.068Z,14.23
2022-11-06T19:47:54.865Z,10.73
2022-11-06T19:50:59.990Z,29.93
2022-11-06T19:54:05.651Z,24.00
2022-11-06T19:57:27.654Z,17.40
2022-11-06T20:00:32.765Z,15.50
2022-11-06T20:03:35.678Z,16.03
2022-11-06T20:06:39.900Z,10.00
2022-11-06T20:09:42.738Z,11.53
2022-11-06T20:12:46.207Z,18.73
2022-11-06T20:15:50.239Z,16.53
2022-11-06T20:18:53.699Z,18.60
2022-11-06T20:21:56.476Z,16.30
2022-11-06T20:24:59.261Z,13.57
2022-11-06T20:28:02.251Z,15.43
2022-11-06T20:31:08.389Z,18.20
2022-11-06T20:34:11.246Z,16.80
2022-11-06T20:37:14.122Z,12.93
2022-11-06T20:40:16.997Z,10.43
2022-11-06T20:43:19.703Z,13.60
2022-11-06T20:46:25.128Z,17.63
2022-11-06T20:49:27.991Z,15.67
2022-11-06T20:52:31.036Z,9.50
2022-11-06T20:55:33.849Z,23.00
2022-11-06T20:58:37.248Z,13.40
2022-11-06T21:01:41.534Z,13.30
2022-11-06T21:04:44.403Z,11.73
2022-11-06T21:07:47.264Z,14.20
2022-11-06T21:10:55.109Z,17.57
2022-11-06T21:13:58.128Z,25.33
2022-11-06T21:17:03.373Z,18.73
2022-11-06T21:20:07.018Z,16.87
2022-11-06T21:23:10.056Z,16.63
2022-11-06T21:26:14.558Z,16.40
2022-11-06T21:29:17.634Z,10.57
2022-11-06T21:32:21.758Z,14.53
2022-11-06T21:35:24.482Z,9.23
2022-11-06T21:38:27.432Z,17.63
2022-11-06T21:41:34.244Z,7.87
2022-11-06T21:44:37.502Z,9.97
2022-11-06T21:47:41.547Z,5.57
2022-11-06T21:50:44.429Z,13.17
2022-11-06T21:54:05.835Z,11.90
2022-11-06T21:57:08.861Z,11.37
2022-11-06T22:00:14.537Z,13.93
2022-11-06T22:03:19.211Z,7.93
2022-11-06T22:06:24.674Z,9.30
2022-11-06T22:09:27.630Z,10.57
2022-11-06T22:12:30.596Z,4.30
2022-11-06T22:15:33.651Z,6.93
2022-11-06T22:18:37.832Z,4.07
2022-11-06T22:21:40.974Z,5.00
2022-11-06T22:24:43.930Z,3.60
2022-11-06T22:27:46.683Z,2.87
2022-11-06T22:30:49.659Z,2.57
2022-11-06T22:33:54.389Z,2.63
2022-11-06T22:36:57.475Z,2.53
2022-11-06T22:40:00.265Z,5.13
2022-11-06T22:43:04.122Z,4.33
2022-11-06T22:46:09.544Z,3.37
2022-11-06T22:49:13.910Z,3.13
2022-11-06T22:52:16.680Z,2.90
2022-11-06T22:55:19.736Z,2.37
2022-11-06T22:58:22.480Z,3.23
2022-11-06T23:01:27.187Z,3.90
2022-11-06T23:04:31.277Z,5.90
2022-11-06T23:07:34.076Z,6.23
2022-11-06T23:10:39.083Z,2.47
2022-11-06T23:13:44.064Z,2.53
2022-11-06T23:17:00.981Z,2.70
2022-11-06T23:20:23.377Z,3.93
2022-11-06T23:23:26.766Z,3.70
2022-11-06T23:26:29.456Z,2.23
2022-11-06T23:29:32.840Z,2.90
2022-11-06T23:32:37.719Z,5.13
2022-11-06T23:35:41.812Z,3.47
2022-11-06T23:38:45.753Z,3.50
2022-11-06T23:41:48.491Z,4.50
2022-11-06T23:45:09.555Z,2.50
2022-11-06T23:48:13.527Z,2.87
2022-11-06T23:51:17.613Z,2.53
2022-11-06T23:54:20.585Z,3.30
2022-11-06T23:57:23.302Z,2.43
